Time;durP1;ratioP1;P1;durP2;ratioP2;P2;SDS_P1;SDS_P2;PMS_P1;PMS_P2;Temp;Humidity;BMP_temperature;BMP_pressure;BME280_temperature;BME280_humidity;BME280_pressure;Samples;Min_cycle;Max_cycle;Signal;HPM_P1;HPM_P2
2022/10/29 00:02:19;;;;;;;4.40;3.02;;;;;;;13.11;80.47;98787.55;1803094;78;21031;-59
2022/10/29 00:04:45;;;;;;;7.60;3.08;;;;;;;13.13;80.04;98785.38;1814582;78;20893;-57
2022/10/29 00:07:12;;;;;;;6.17;3.20;;;;;;;13.15;79.64;98790.73;1811257;78;20861;-58
2022/10/29 00:09:39;;;;;;;5.03;3.22;;;;;;;13.15;79.45;98784.53;1811115;78;21003;-59
2022/10/29 00:12:07;;;;;;;5.28;2.80;;;;;;;13.14;79.17;98781.07;1813336;78;20896;-59
2022/10/29 00:14:34;;;;;;;4.53;3.05;;;;;;;13.13;78.85;98781.34;1810219;78;21415;-59
2022/10/29 00:17:02;;;;;;;4.17;2.70;;;;;;;13.12;78.89;98776.50;1812754;78;20921;-58
2022/10/29 00:19:29;;;;;;;5.35;2.80;;;;;;;13.14;78.82;98780.27;1811969;78;21502;-60
2022/10/29 00:21:56;;;;;;;7.12;3.12;;;;;;;13.14;78.72;98781.61;1810220;78;21113;-59
2022/10/29 00:24:23;;;;;;;4.65;3.17;;;;;;;13.15;78.78;98781.31;1810255;78;21662;-58
2022/10/29 00:26:50;;;;;;;4.25;3.25;;;;;;;13.14;78.79;98769.50;1810888;78;20904;-59
2022/10/29 00:29:16;;;;;;;4.30;3.20;;;;;;;13.12;78.84;98769.77;1804078;78;21636;-58
2022/10/29 00:31:43;;;;;;;5.37;3.37;;;;;;;13.11;78.91;98773.56;1808446;77;20983;-59
2022/10/29 00:34:09;;;;;;;5.95;3.33;;;;;;;13.11;78.79;98771.41;1813615;78;20876;-57
2022/10/29 00:36:36;;;;;;;6.53;3.12;;;;;;;13.10;78.75;98761.20;1811939;78;21108;-58
2022/10/29 00:39:03;;;;;;;6.08;2.70;;;;;;;13.11;78.72;98756.63;1809936;78;20952;-57
2022/10/29 00:41:30;;;;;;;4.90;3.20;;;;;;;13.11;78.62;98757.43;1810446;78;20979;-58
2022/10/29 00:44:25;;;;;;;4.40;2.98;;;;;;;13.11;78.62;98750.70;1811547;78;20924;-58
2022/10/29 00:46:56;;;;;;;3.23;2.90;;;;;;;13.12;78.57;98744.79;1809096;78;21479;-59
2022/10/29 00:49:23;;;;;;;4.08;2.80;;;;;;;13.12;78.51;98749.59;1810187;78;21227;-58
2022/10/29 00:51:50;;;;;;;4.95;2.80;;;;;;;13.11;78.23;98748.02;1756396;80;20904;-59
2022/10/29 00:54:16;;;;;;;3.52;2.55;;;;;;;13.09;78.18;98754.23;1773854;80;21412;-56
2022/10/29 00:56:48;;;;;;;8.00;3.00;;;;;;;13.09;78.05;98754.23;1774104;79;20841;-59
2022/10/29 00:59:15;;;;;;;3.92;2.80;;;;;;;13.10;78.11;98757.70;1772572;80;21004;-58
2022/10/29 01:01:43;;;;;;;7.35;2.70;;;;;;;13.10;77.99;98759.04;1773087;80;21048;-59
2022/10/29 01:04:10;;;;;;;4.85;2.60;;;;;;;13.11;77.66;98747.20;1771331;80;20966;-59
2022/10/29 01:06:38;;;;;;;6.83;2.67;;;;;;;13.10;77.57;98753.13;1774261;80;20968;-58
2022/10/29 01:09:04;;;;;;;5.17;2.60;;;;;;;13.08;77.34;98743.20;1805076;78;21039;-58
2022/10/29 01:11:59;;;;;;;4.20;2.80;;;;;;;13.04;77.40;98744.84;1811987;78;20995;-59
2022/10/29 01:14:52;;;;;;;2.92;2.42;;;;;;;13.01;77.66;98736.00;1806155;78;21262;-59
2022/10/29 01:17:33;;;;;;;5.03;2.47;;;;;;;12.97;77.74;98732.30;1806932;78;21525;-58
2022/10/29 01:20:23;;;;;;;6.72;2.60;;;;;;;12.96;77.82;98729.34;1809165;78;21431;-57
2022/10/29 01:23:30;;;;;;;5.40;2.87;;;;;;;12.96;77.79;98725.30;1771571;80;20983;-58
2022/10/29 01:26:37;;;;;;;5.95;2.83;;;;;;;12.97;77.78;98722.88;1812097;78;20980;-57
2022/10/29 01:29:46;;;;;;;5.30;2.50;;;;;;;12.95;77.75;98723.16;1813668;78;21898;-58
2022/10/29 01:32:44;;;;;;;4.62;2.83;;;;;;;12.92;77.92;98718.91;1811716;78;20944;-58
2022/10/29 01:35:22;;;;;;;4.75;2.40;;;;;;;12.90;78.07;98713.02;1809328;78;20993;-56
2022/10/29 01:38:23;;;;;;;4.30;2.85;;;;;;;12.89;78.27;98710.87;1811729;78;20901;-58
2022/10/29 01:40:58;;;;;;;4.30;2.90;;;;;;;12.87;78.44;98718.42;1773117;79;20925;-59
2022/10/29 01:43:34;;;;;;;;;;;;;;;12.85;78.53;98715.77;1815802;78;21378;-59
2022/10/29 01:46:13;;;;;;;5.17;3.20;;;;;;;12.85;78.65;98710.39;1813871;78;20104;-59
2022/10/29 01:48:47;;;;;;;4.92;3.08;;;;;;;12.81;78.80;98699.96;1804828;78;20940;-58
2022/10/29 01:51:27;;;;;;;5.27;2.83;;;;;;;12.80;79.05;98707.76;1811779;78;20992;-59
2022/10/29 01:53:53;;;;;;;6.62;2.70;;;;;;;12.78;79.07;98704.02;1811769;79;21140;-57
2022/10/29 01:56:20;;;;;;;4.90;2.90;;;;;;;12.78;79.16;98704.02;1811199;78;21219;-59
2022/10/29 01:58:49;;;;;;;5.65;2.80;;;;;;;12.78;79.20;98701.88;1812810;78;20888;-59
2022/10/29 02:02:07;;;;;;;4.47;3.05;;;;;;;12.79;79.36;98703.45;1812536;78;20873;-60
2022/10/29 02:05:13;;;;;;;6.90;3.55;;;;;;;12.77;79.42;98700.26;1808729;77;21427;-59
2022/10/29 02:07:58;;;;;;;5.42;3.40;;;;;;;12.70;79.50;98699.80;1770663;80;20880;-58
2022/10/29 02:10:46;;;;;;;5.83;3.83;;;;;;;12.54;79.72;98697.84;1753221;80;21127;-57
2022/10/29 02:13:13;;;;;;;9.50;4.20;;;;;;;12.42;80.15;98696.09;1813373;78;20932;-58
2022/10/29 02:15:49;;;;;;;6.62;4.17;;;;;;;12.27;80.33;98690.32;1812007;78;20939;-57
2022/10/29 02:18:16;;;;;;;5.50;3.72;;;;;;;12.11;80.60;98690.75;1811098;78;20888;-56
2022/10/29 02:20:44;;;;;;;8.73;4.85;;;;;;;11.93;81.40;98683.41;1810221;78;20975;-56
2022/10/29 02:23:11;;;;;;;9.00;5.00;;;;;;;11.84;81.99;98678.39;1811927;78;21507;-58
2022/10/29 02:25:39;;;;;;;7.62;4.45;;;;;;;11.71;82.15;98671.78;1811093;78;21075;-56
2022/10/29 02:28:05;;;;;;;7.47;4.67;;;;;;;11.54;82.67;98680.19;1813846;78;20932;-56
2022/10/29 02:30:33;;;;;;;9.85;4.65;;;;;;;11.36;83.21;98677.38;1812848;78;21499;-56
2022/10/29 02:33:00;;;;;;;5.35;4.15;;;;;;;11.22;83.76;98669.69;1810270;78;20845;-56
2022/10/29 02:35:27;;;;;;;6.42;3.83;;;;;;;11.11;84.27;98667.63;1811352;78;21989;-59
2022/10/29 02:37:53;;;;;;;6.40;4.10;;;;;;;11.05;85.30;98658.52;1815155;78;20900;-57
2022/10/29 02:40:20;;;;;;;7.60;4.20;;;;;;;11.05;85.57;98661.20;1810850;78;20916;-57
2022/10/29 02:42:46;;;;;;;6.72;4.40;;;;;;;11.03;85.81;98666.04;1811080;79;20923;-58
2022/10/29 02:45:14;;;;;;;6.78;4.70;;;;;;;10.97;86.02;98673.33;1812239;78;21438;-57
2022/10/29 02:47:42;;;;;;;5.05;4.05;;;;;;;10.91;86.39;98669.86;1810162;79;21207;-57
2022/10/29 02:50:09;;;;;;;6.55;4.20;;;;;;;10.88;86.81;98673.08;1811933;78;20904;-57
2022/10/29 02:52:35;;;;;;;8.18;4.30;;;;;;;10.86;87.07;98673.91;1812918;78;21446;-58
2022/10/29 02:55:04;;;;;;;6.92;4.58;;;;;;;10.84;87.39;98658.64;1810219;78;20881;-57
2022/10/29 02:57:31;;;;;;;8.45;5.15;;;;;;;10.82;87.56;98658.12;1811074;78;20956;-58
2022/10/29 02:59:59;;;;;;;6.50;4.80;;;;;;;10.77;87.56;98654.12;1797763;79;21193;-58
2022/10/29 03:02:26;;;;;;;9.08;5.05;;;;;;;10.72;87.71;98650.65;1813660;78;21376;-58
2022/10/29 03:04:53;;;;;;;11.95;5.45;;;;;;;10.66;87.94;98656.59;1810212;78;20927;-58
2022/10/29 03:07:21;;;;;;;5.90;4.78;;;;;;;10.62;88.29;98648.81;1812014;78;21502;-57
2022/10/29 03:09:48;;;;;;;7.05;4.92;;;;;;;10.62;88.61;98642.12;1810269;78;20900;-58
2022/10/29 03:12:14;;;;;;;8.70;5.50;;;;;;;10.63;88.80;98637.03;1812176;78;21419;-58
2022/10/29 03:14:42;;;;;;;6.45;4.85;;;;;;;10.65;88.98;98644.25;1811061;78;20898;-59
2022/10/29 03:17:09;;;;;;;13.55;5.67;;;;;;;10.67;89.06;98640.76;1811173;78;20948;-58
2022/10/29 03:19:37;;;;;;;10.48;5.37;;;;;;;10.65;89.32;98646.94;1811939;78;20928;-59
2022/10/29 03:22:03;;;;;;;6.30;4.90;;;;;;;10.63;89.44;98642.39;1813753;78;20960;-58
2022/10/29 03:24:30;;;;;;;8.35;4.60;;;;;;;10.62;89.53;98632.73;1812307;77;21112;-58
2022/10/29 03:27:01;;;;;;;8.90;6.10;;;;;;;10.61;89.70;98633.02;1811212;78;20845;-59
2022/10/29 03:29:27;;;;;;;5.87;4.62;;;;;;;10.58;89.76;98634.38;1812502;78;20920;-58
2022/10/29 03:31:54;;;;;;;7.55;4.87;;;;;;;10.54;89.87;98629.84;1811465;78;20916;-58
2022/10/29 03:34:20;;;;;;;7.25;5.42;;;;;;;10.48;89.89;98626.37;1811969;78;21051;-57
2022/10/29 03:36:47;;;;;;;6.90;5.37;;;;;;;10.39;90.06;98625.34;1813158;78;21710;-59
2022/10/29 03:39:14;;;;;;;7.28;5.00;;;;;;;10.35;90.35;98621.61;1813779;78;20861;-58
2022/10/29 03:41:40;;;;;;;7.47;4.65;;;;;;;10.29;90.63;98615.46;1811852;78;21466;-59
2022/10/29 03:44:07;;;;;;;8.40;5.47;;;;;;;10.25;90.97;98613.61;1810185;78;20916;-57
2022/10/29 03:46:33;;;;;;;6.47;4.65;;;;;;;10.21;91.30;98612.55;1811173;78;21645;-57
2022/10/29 03:49:00;;;;;;;9.68;5.58;;;;;;;10.20;91.64;98614.95;1812781;78;21212;-57
2022/10/29 03:51:27;;;;;;;8.53;5.12;;;;;;;10.21;91.85;98615.23;1811827;78;20944;-58
2022/10/29 03:53:53;;;;;;;10.03;6.17;;;;;;;10.22;91.86;98617.62;1812019;78;20974;-57
2022/10/29 03:56:20;;;;;;;8.13;5.40;;;;;;;10.22;91.91;98616.84;1811907;78;20995;-57
2022/10/29 03:58:47;;;;;;;6.25;4.83;;;;;;;10.23;91.93;98610.41;1811953;78;20904;-57
2022/10/29 04:01:14;;;;;;;11.68;4.45;;;;;;;10.20;92.03;98603.72;1812342;78;21156;-58
2022/10/29 04:03:42;;;;;;;6.85;4.95;;;;;;;10.20;92.08;98610.41;1811029;78;20873;-59
2022/10/29 04:06:12;;;;;;;6.83;5.28;;;;;;;10.21;92.14;98615.23;1811926;78;21014;-57
2022/10/29 04:08:41;;;;;;;7.60;5.28;;;;;;;10.22;92.12;98618.19;1811811;78;20960;-58
2022/10/29 04:11:11;;;;;;;7.60;5.17;;;;;;;10.20;92.05;98614.42;1812519;78;20933;-56
2022/10/29 04:13:39;;;;;;;8.73;5.90;;;;;;;10.17;92.05;98606.93;1813701;78;21486;-58
2022/10/29 04:16:07;;;;;;;8.13;5.42;;;;;;;10.12;92.12;98611.52;1812920;78;21007;-58
2022/10/29 04:18:33;;;;;;;10.30;5.58;;;;;;;10.08;92.22;98603.74;1813777;78;21006;-59
2022/10/29 04:21:02;;;;;;;8.70;5.62;;;;;;;10.06;92.40;98597.83;1811061;78;20936;-59
2022/10/29 04:23:29;;;;;;;11.03;7.05;;;;;;;10.06;92.40;98596.50;1812037;78;20956;-57
2022/10/29 04:25:57;;;;;;;8.93;6.62;;;;;;;10.02;92.42;98598.13;1811345;78;21393;-58
2022/10/29 04:28:24;;;;;;;9.90;7.92;;;;;;;9.98;92.60;98591.72;1809512;77;21020;-58
2022/10/29 04:30:51;;;;;;;12.05;7.90;;;;;;;9.91;92.66;98583.98;1809976;78;20995;-57
2022/10/29 04:33:18;;;;;;;15.10;7.50;;;;;;;9.82;92.89;98585.58;1813875;78;20999;-57
2022/10/29 04:35:53;;;;;;;11.57;6.60;;;;;;;9.78;93.17;98583.72;1810585;78;20880;-57
2022/10/29 04:38:20;;;;;;;9.60;7.83;;;;;;;9.80;93.46;98592.30;1813374;78;21263;-58
2022/10/29 04:40:47;;;;;;;7.92;6.20;;;;;;;9.82;93.46;98583.46;1814115;78;21427;-58
2022/10/29 04:43:14;;;;;;;11.60;6.17;;;;;;;9.80;93.55;98579.70;1810107;78;20957;-58
2022/10/29 04:45:42;;;;;;;8.28;5.90;;;;;;;9.80;93.69;98584.27;1811806;78;21510;-58
2022/10/29 04:48:08;;;;;;;9.33;5.72;;;;;;;9.78;93.71;98592.55;1812659;78;21089;-60
2022/10/29 04:50:36;;;;;;;7.83;5.03;;;;;;;9.76;93.77;98583.19;1812074;78;21071;-57
2022/10/29 04:53:05;;;;;;;8.10;5.08;;;;;;;9.75;93.98;98586.95;1810053;78;21391;-58
2022/10/29 04:55:36;;;;;;;8.55;5.10;;;;;;;9.75;94.17;98585.61;1810948;78;20984;-59
2022/10/29 04:58:04;;;;;;;6.30;4.97;;;;;;;9.74;94.21;98582.66;1812697;78;20971;-59
2022/10/29 05:00:31;;;;;;;8.15;5.05;;;;;;;9.73;94.23;98591.77;1811945;78;20928;-58
2022/10/29 05:02:58;;;;;;;7.00;4.50;;;;;;;9.73;94.32;98591.77;1810961;78;21093;-57
2022/10/29 05:05:25;;;;;;;9.15;5.50;;;;;;;9.74;94.37;98598.71;1811002;78;20892;-58
2022/10/29 05:08:01;;;;;;;8.73;5.28;;;;;;;9.75;94.37;98603.00;1813602;78;21100;-57
2022/10/29 05:10:32;;;;;;;12.43;5.72;;;;;;;9.78;94.41;98601.10;1805987;77;21368;-58
2022/10/29 05:13:06;;;;;;;8.90;5.05;;;;;;;9.81;94.28;98606.73;1812407;79;20920;-59
2022/10/29 05:15:33;;;;;;;6.62;4.60;;;;;;;9.80;94.08;98609.13;1811048;78;21525;-59
2022/10/29 05:18:00;;;;;;;6.65;4.45;;;;;;;9.73;94.02;98609.94;1806625;78;20896;-58
2022/10/29 05:20:27;;;;;;;13.75;5.47;;;;;;;9.68;94.22;98610.50;1811210;78;20941;-59
2022/10/29 05:23:06;;;;;;;10.93;6.30;;;;;;;9.62;94.31;98612.37;1812527;78;20848;-57
2022/10/29 05:25:35;;;;;;;12.58;6.80;;;;;;;9.58;94.25;98602.76;1811782;78;20959;-58
2022/10/29 05:28:12;;;;;;;10.60;6.70;;;;;;;9.58;94.10;98605.96;1809755;78;21263;-59
2022/10/29 05:30:39;;;;;;;9.28;5.92;;;;;;;9.54;94.01;98615.04;1812577;78;20916;-58
2022/10/29 05:33:08;;;;;;;8.90;5.80;;;;;;;9.54;94.19;98618.24;1812493;78;20928;-57
2022/10/29 05:35:35;;;;;;;10.08;5.85;;;;;;;9.53;94.30;98617.99;1812239;78;20892;-58
2022/10/29 05:38:02;;;;;;;9.45;6.10;;;;;;;9.54;94.43;98611.56;1811937;78;20900;-58
2022/10/29 05:40:28;;;;;;;13.18;7.72;;;;;;;9.57;94.55;98612.37;1812220;78;21313;-59
2022/10/29 05:42:55;;;;;;;12.88;7.83;;;;;;;9.60;94.62;98615.33;1812849;78;20996;-60
2022/10/29 05:45:22;;;;;;;11.53;8.10;;;;;;;9.67;94.69;98619.58;1811995;79;21057;-60
2022/10/29 05:47:57;;;;;;;12.23;7.90;;;;;;;9.72;94.73;98627.08;1810088;78;20998;-59
2022/10/29 05:50:24;;;;;;;12.40;6.87;;;;;;;9.77;94.75;98626.27;1810355;78;21419;-59
2022/10/29 05:53:02;;;;;;;12.15;6.62;;;;;;;9.84;94.99;98621.45;1812696;78;21530;-60
2022/10/29 05:55:29;;;;;;;11.97;7.60;;;;;;;9.95;95.18;98623.02;1812715;78;20948;-59
2022/10/29 05:58:01;;;;;;;7.35;6.37;;;;;;;10.10;94.99;98621.66;1810392;78;20923;-57
2022/10/29 06:00:30;;;;;;;14.87;9.88;;;;;;;10.21;94.70;98625.94;1811464;78;20900;-60
2022/10/29 06:02:57;;;;;;;13.98;9.08;;;;;;;10.29;94.33;98621.37;1811195;78;20907;-58
2022/10/29 06:05:24;;;;;;;18.02;11.25;;;;;;;10.36;93.97;98619.74;1810202;78;21141;-58
2022/10/29 06:07:58;;;;;;;15.43;9.13;;;;;;;10.42;93.78;98616.77;1809987;78;21063;-57
2022/10/29 06:10:25;;;;;;;21.65;9.68;;;;;;;10.55;93.63;98629.55;1805111;78;20882;-60
2022/10/29 06:12:52;;;;;;;18.95;7.45;;;;;;;10.67;93.35;98616.64;1810819;78;20908;-58
2022/10/29 06:15:19;;;;;;;17.65;7.40;;;;;;;10.79;92.76;98611.77;1811236;78;20976;-59
2022/10/29 06:17:48;;;;;;;10.30;6.60;;;;;;;10.87;92.18;98605.84;1810456;78;20884;-61
2022/10/29 06:20:21;;;;;;;11.75;6.42;;;;;;;10.96;91.66;98608.19;1811694;78;21019;-59
2022/10/29 06:22:57;;;;;;;14.03;7.47;;;;;;;11.02;91.17;98594.77;1812100;78;20999;-59
2022/10/29 06:25:24;;;;;;;;;;;;;;;11.05;90.65;98595.52;1813836;78;20892;-61
2022/10/29 06:28:07;;;;;;;11.60;9.20;;;;;;;11.05;90.40;98580.78;1812154;78;20362;-60
2022/10/29 06:30:35;;;;;;;11.93;8.25;;;;;;;11.06;90.31;98575.69;1813167;77;21180;-59
2022/10/29 06:33:02;;;;;;;19.05;10.55;;;;;;;11.09;90.20;98569.25;1773801;79;20972;-58
2022/10/29 06:35:29;;;;;;;17.25;11.18;;;;;;;11.15;89.98;98577.50;1772806;80;21647;-58
2022/10/29 06:37:56;;;;;;;17.57;11.22;;;;;;;11.20;89.69;98592.75;1772052;80;20952;-59
2022/10/29 06:40:23;;;;;;;14.15;8.50;;;;;;;11.27;89.60;98587.87;1773890;79;20916;-61
2022/10/29 06:43:03;;;;;;;14.63;10.55;;;;;;;11.34;89.36;98585.67;1812083;78;21530;-61
2022/10/29 06:45:32;;;;;;;7.78;6.00;;;;;;;11.37;89.19;98575.20;1764585;80;20887;-59
2022/10/29 06:48:00;;;;;;;7.45;4.80;;;;;;;11.40;88.89;98569.81;1812609;78;21005;-60
2022/10/29 06:50:27;;;;;;;8.38;4.65;;;;;;;11.43;88.38;98582.64;1813713;78;20900;-58
2022/10/29 06:53:00;;;;;;;10.23;5.20;;;;;;;11.48;88.04;98578.58;1811162;78;20945;-58
2022/10/29 06:55:27;;;;;;;7.47;4.72;;;;;;;11.49;87.77;98578.28;1811931;78;21209;-58
2022/10/29 06:58:06;;;;;;;8.90;4.30;;;;;;;11.51;87.62;98583.39;1812632;77;21050;-57
2022/10/29 07:00:34;;;;;;;7.22;4.72;;;;;;;11.51;87.35;98577.48;1810583;78;20876;-61
2022/10/29 07:03:02;;;;;;;8.23;4.72;;;;;;;11.49;87.19;98576.94;1812002;78;21055;-60
2022/10/29 07:05:29;;;;;;;9.38;4.72;;;;;;;11.50;87.17;98576.41;1811978;78;20869;-58
2022/10/29 07:07:56;;;;;;;9.38;4.95;;;;;;;11.48;87.23;98571.34;1810886;78;21180;-57
2022/10/29 07:10:26;;;;;;;6.97;4.22;;;;;;;11.48;87.21;98561.14;1812062;78;20964;-58
2022/10/29 07:12:53;;;;;;;10.05;4.50;;;;;;;11.51;87.24;98569.98;1805143;79;21526;-58
2022/10/29 07:15:21;;;;;;;8.53;3.95;;;;;;;11.55;87.27;98565.64;1810802;78;20940;-59
2022/10/29 07:18:04;;;;;;;6.72;4.40;;;;;;;11.64;86.78;98569.30;1811085;78;20884;-60
2022/10/29 07:20:34;;;;;;;7.85;4.00;;;;;;;11.73;86.41;98561.48;1806737;78;21755;-61
2022/10/29 07:23:00;;;;;;;8.08;3.75;;;;;;;11.85;85.95;98551.95;1812751;78;20919;-59
2022/10/29 07:25:28;;;;;;;7.20;3.90;;;;;;;11.94;85.42;98549.45;1813156;78;20826;-60
2022/10/29 07:28:15;;;;;;;5.65;3.67;;;;;;;12.02;85.25;98549.62;1812121;78;20987;-60
2022/10/29 07:30:43;;;;;;;5.95;3.72;;;;;;;12.13;84.99;98552.44;1807137;78;21027;-59
2022/10/29 07:33:10;;;;;;;5.95;3.45;;;;;;;12.26;84.91;98546.39;1810634;78;21263;-59
2022/10/29 07:35:38;;;;;;;5.45;3.27;;;;;;;12.42;84.38;98536.77;1812388;78;20880;-58
2022/10/29 07:38:05;;;;;;;10.10;3.40;;;;;;;12.55;83.59;98534.20;1811994;78;20916;-60
2022/10/29 07:40:32;;;;;;;4.53;3.30;;;;;;;12.68;82.99;98534.81;1812091;78;20996;-59
2022/10/29 07:42:59;;;;;;;5.08;3.27;;;;;;;12.81;82.59;98529.27;1813734;78;20924;-58
2022/10/29 07:45:26;;;;;;;4.85;3.05;;;;;;;12.91;82.15;98529.89;1811122;78;21212;-61
2022/10/29 07:48:06;;;;;;;8.18;3.22;;;;;;;13.02;81.66;98527.86;1811930;78;21090;-58
2022/10/29 07:50:33;;;;;;;7.10;3.67;;;;;;;13.16;81.22;98526.05;1811045;78;21498;-59
2022/10/29 07:53:00;;;;;;;6.60;3.65;;;;;;;13.28;80.81;98518.87;1812566;78;21052;-59
2022/10/29 07:55:28;;;;;;;4.90;3.00;;;;;;;13.36;80.59;98518.98;1811194;78;20924;-59
2022/10/29 07:58:00;;;;;;;10.98;4.00;;;;;;;13.45;80.00;98523.13;1810988;78;21097;-60
2022/10/29 08:00:32;;;;;;;7.08;3.30;;;;;;;13.53;79.93;98517.88;1806720;79;20833;-61
2022/10/29 08:02:59;;;;;;;4.53;2.85;;;;;;;13.65;79.66;98510.13;1813167;78;32758;-59
2022/10/29 08:05:28;;;;;;;5.10;2.67;;;;;;;13.78;78.81;98507.75;1812820;79;20876;-60
2022/10/29 08:07:56;;;;;;;8.48;2.72;;;;;;;13.93;77.78;98512.83;1812028;78;20968;-60
2022/10/29 08:10:23;;;;;;;4.40;2.35;;;;;;;14.15;77.42;98518.33;1811000;78;21266;-61
2022/10/29 08:12:53;;;;;;;4.25;2.37;;;;;;;14.36;76.37;98517.64;1811790;78;21548;-58
2022/10/29 08:15:20;;;;;;;4.33;2.62;;;;;;;14.58;74.96;98512.84;1810312;78;20923;-61
2022/10/29 08:17:46;;;;;;;4.78;2.42;;;;;;;14.78;73.74;98517.79;1811996;78;20881;-62
2022/10/29 08:20:15;;;;;;;5.65;2.60;;;;;;;14.92;72.34;98515.84;1815190;78;20972;-60
2022/10/29 08:22:42;;;;;;;5.05;2.70;;;;;;;15.01;72.33;98518.05;1813358;78;21399;-59
2022/10/29 08:25:09;;;;;;;8.33;3.10;;;;;;;15.07;71.61;98508.72;1810273;78;20912;-62
2022/10/29 08:27:37;;;;;;;4.75;2.87;;;;;;;15.11;71.57;98508.11;1808575;78;20853;-60
2022/10/29 08:30:06;;;;;;;6.33;2.62;;;;;;;15.15;71.86;98504.49;1810495;78;20999;-61
2022/10/29 08:32:34;;;;;;;7.92;3.33;;;;;;;15.18;71.73;98505.78;1811718;78;20888;-61
2022/10/29 08:35:02;;;;;;;8.25;3.60;;;;;;;15.19;71.97;98499.30;1813818;78;21215;-60
2022/10/29 08:37:30;;;;;;;5.12;3.37;;;;;;;15.18;71.68;98499.04;1803862;78;21014;-61
2022/10/29 08:39:57;;;;;;;5.50;3.30;;;;;;;15.15;71.79;98501.00;1811938;78;21005;-60
2022/10/29 08:42:34;;;;;;;6.78;3.42;;;;;;;15.12;72.16;98498.36;1809863;78;21049;-61
2022/10/29 08:45:26;;;;;;;10.20;3.70;;;;;;;15.14;72.18;98498.06;1799526;78;20982;-63
2022/10/29 08:48:26;;;;;;;5.30;3.65;;;;;;;15.14;72.62;98498.06;1802209;78;21309;-62
2022/10/29 08:51:17;;;;;;;10.05;4.20;;;;;;;15.17;72.99;98490.72;1812918;78;20877;-61
2022/10/29 08:53:50;;;;;;;10.30;4.15;;;;;;;15.24;73.11;98484.33;1812796;78;20884;-64
2022/10/29 08:56:21;;;;;;;18.35;3.90;;;;;;;15.34;73.07;98483.51;1810357;78;20952;-62
2022/10/29 08:59:13;;;;;;;6.70;3.65;;;;;;;15.44;72.59;98481.10;1813230;78;20971;-60
2022/10/29 09:01:40;;;;;;;6.10;3.12;;;;;;;15.54;72.51;98483.58;1811126;78;21239;-61
2022/10/29 09:04:26;;;;;;;6.62;2.90;;;;;;;15.69;72.03;98477.20;1810995;78;20879;-59
2022/10/29 09:07:21;;;;;;;4.70;3.00;;;;;;;15.83;70.94;98468.99;1807575;78;21010;-59
2022/10/29 09:09:57;;;;;;;7.05;3.20;;;;;;;15.98;71.10;98469.13;1803305;78;23765;-60
2022/10/29 09:12:47;;;;;;;;;;;;;;;16.12;71.01;98477.36;1813720;78;20967;-61
2022/10/29 09:15:25;;;;;;;6.22;3.52;;;;;;;16.25;70.52;98473.72;1811755;78;21166;-63
2022/10/29 09:18:25;;;;;;;9.48;5.25;;;;;;;16.37;69.31;98466.34;1812407;78;20833;-60
2022/10/29 09:21:32;;;;;;;10.43;8.00;;;;;;;16.48;69.11;98469.00;1812444;78;21478;-60
2022/10/29 09:24:34;;;;;;;22.22;14.00;;;;;;;16.64;68.80;98466.09;1812816;78;21466;-60
2022/10/29 09:27:06;;;;;;;11.20;6.42;;;;;;;16.81;68.20;98470.70;1812806;78;21462;-63
2022/10/29 09:30:12;;;;;;;5.15;4.03;;;;;;;16.90;67.25;98478.27;1813015;78;23132;-61
2022/10/29 09:32:44;;;;;;;9.08;4.42;;;;;;;16.93;66.95;98481.11;1811409;78;20975;-63
2022/10/29 09:35:18;;;;;;;6.33;3.67;;;;;;;16.96;66.93;98483.73;1813412;78;20939;-60
2022/10/29 09:37:48;;;;;;;7.30;3.90;;;;;;;17.01;66.45;98491.70;1810225;78;20947;-62
2022/10/29 09:40:20;;;;;;;7.60;3.22;;;;;;;17.09;66.08;98489.55;1811233;78;21426;-60
2022/10/29 09:42:47;;;;;;;5.37;4.05;;;;;;;17.19;64.30;98482.46;1808102;78;21105;-62
2022/10/29 09:45:17;;;;;;;7.80;4.40;;;;;;;17.34;64.47;98476.52;1811778;78;20916;-59
2022/10/29 09:48:14;;;;;;;6.95;3.05;;;;;;;17.51;64.65;98468.39;1796064;78;20924;-59
2022/10/29 09:50:58;;;;;;;5.08;3.00;;;;;;;17.61;62.24;98470.75;1812087;78;20971;-58
2022/10/29 09:53:25;;;;;;;4.65;2.90;;;;;;;17.71;62.57;98469.02;1809826;78;20960;-60
2022/10/29 09:55:52;;;;;;;7.53;4.30;;;;;;;17.82;61.23;98460.54;1813190;78;21223;-60
2022/10/29 09:58:25;;;;;;;11.57;5.97;;;;;;;17.86;59.83;98460.91;1811259;78;20919;-60
2022/10/29 10:00:53;;;;;;;7.47;5.25;;;;;;;17.88;60.10;98461.94;1813096;78;21082;-60
2022/10/29 10:03:36;;;;;;;4.83;2.90;;;;;;;17.89;59.52;98456.76;1809797;78;20912;-58
2022/10/29 10:06:11;;;;;;;6.97;3.37;;;;;;;17.83;58.79;98455.37;1811276;78;20931;-60
2022/10/29 10:08:59;;;;;;;7.83;3.52;;;;;;;17.78;58.72;98462.32;1813452;78;21207;-60
2022/10/29 10:11:37;;;;;;;6.67;3.08;;;;;;;17.75;58.36;98459.14;1809411;78;21044;-59
2022/10/29 10:14:20;;;;;;;7.50;2.67;;;;;;;17.73;59.54;98457.30;1812685;78;20914;-58
2022/10/29 10:16:57;;;;;;;4.97;2.45;;;;;;;17.72;58.90;98457.08;1813733;78;20980;-57
2022/10/29 10:19:30;;;;;;;5.35;2.42;;;;;;;17.73;58.18;98447.81;1811127;78;20989;-60
2022/10/29 10:21:59;;;;;;;6.03;2.45;;;;;;;17.78;58.07;98453.05;1813842;78;21727;-59
2022/10/29 10:24:31;;;;;;;6.35;2.60;;;;;;;17.83;57.88;98443.95;1811904;78;21175;-59
2022/10/29 10:26:58;;;;;;;4.78;2.30;;;;;;;17.90;58.52;98420.42;1811243;78;20936;-57
2022/10/29 10:29:25;;;;;;;5.80;2.20;;;;;;;17.91;57.77;98442.32;1812313;78;20857;-59
2022/10/29 10:32:00;;;;;;;7.95;2.33;;;;;;;17.85;57.75;98420.61;1810901;78;21439;-57
2022/10/29 10:34:37;;;;;;;5.50;2.52;;;;;;;17.74;57.79;98433.16;1811150;78;21190;-59
2022/10/29 10:37:08;;;;;;;5.00;2.17;;;;;;;17.58;58.35;98450.28;1812754;78;20969;-59
2022/10/29 10:39:43;;;;;;;7.05;2.30;;;;;;;17.39;59.39;98435.73;1810927;78;21386;-61
2022/10/29 10:42:38;;;;;;;6.25;2.45;;;;;;;17.26;59.94;98418.34;1813721;78;20911;-58
2022/10/29 10:45:15;;;;;;;5.40;2.50;;;;;;;17.16;59.96;98428.16;1811988;78;21390;-60
2022/10/29 10:47:50;;;;;;;4.15;2.40;;;;;;;17.08;60.51;98432.47;1812134;78;21708;-59
2022/10/29 10:50:23;;;;;;;7.97;2.75;;;;;;;17.05;61.05;98429.07;1814056;78;20915;-58
2022/10/29 10:52:50;;;;;;;7.85;2.75;;;;;;;17.05;61.28;98420.95;1812893;78;20955;-58
2022/10/29 10:55:26;;;;;;;7.60;3.00;;;;;;;17.04;61.40;98412.59;1813186;79;21443;-56
2022/10/29 10:58:13;;;;;;;7.03;3.02;;;;;;;17.05;61.38;98404.72;1809660;78;21372;-59
2022/10/29 11:00:51;;;;;;;9.73;3.33;;;;;;;17.00;61.52;98403.53;1812085;78;21218;-56
2022/10/29 11:03:22;;;;;;;7.50;2.80;;;;;;;16.96;61.78;98399.86;1808938;78;20952;-60
2022/10/29 11:06:28;;;;;;;7.97;3.27;;;;;;;16.93;61.81;98391.82;1813778;78;21126;-59
2022/10/29 11:09:31;;;;;;;8.13;2.90;;;;;;;16.90;62.06;98399.80;1812592;78;20893;-60
2022/10/29 11:12:35;;;;;;;8.80;3.80;;;;;;;16.91;62.13;98388.64;1812495;79;20900;-59
2022/10/29 11:15:23;;;;;;;6.70;2.83;;;;;;;16.93;61.86;98397.23;1812694;78;21239;-60
2022/10/29 11:17:57;;;;;;;6.33;2.70;;;;;;;16.94;61.93;98383.16;1805890;78;20986;-60
2022/10/29 11:20:28;;;;;;;5.22;2.80;;;;;;;16.95;62.24;98360.41;1809874;78;20970;-59
2022/10/29 11:23:23;;;;;;;9.50;2.75;;;;;;;16.92;62.06;98377.27;1813055;78;20879;-60
2022/10/29 11:26:12;;;;;;;8.35;2.42;;;;;;;16.88;62.00;98364.16;1785620;78;21102;-59
2022/10/29 11:28:56;;;;;;;6.28;2.60;;;;;;;16.81;61.77;98350.33;1811134;78;21151;-60
2022/10/29 11:31:53;;;;;;;10.25;3.05;;;;;;;16.72;62.14;98361.73;1812657;78;20841;-61
2022/10/29 11:34:44;;;;;;;6.20;2.45;;;;;;;16.69;62.77;98338.83;1807456;78;21003;-59
2022/10/29 11:37:45;;;;;;;6.12;3.00;;;;;;;16.86;62.05;98352.88;1805854;78;20967;-57
2022/10/29 11:40:39;;;;;;;6.80;2.72;;;;;;;17.13;60.85;98344.34;1807788;78;21058;-59
2022/10/29 11:43:10;;;;;;;6.92;2.75;;;;;;;17.42;60.12;98363.89;1807295;78;21232;-58
2022/10/29 11:45:57;;;;;;;4.95;2.42;;;;;;;17.58;59.81;98353.58;1810601;78;21055;-59
2022/10/29 11:48:57;;;;;;;6.65;2.95;;;;;;;17.72;59.47;98360.11;1811904;78;21007;-59
2022/10/29 11:52:01;;;;;;;6.70;2.62;;;;;;;17.88;59.67;98358.97;1811774;78;20916;-58
2022/10/29 11:55:05;;;;;;;4.42;2.55;;;;;;;17.97;58.74;98354.31;1812812;78;21020;-58
2022/10/29 11:58:00;;;;;;;6.05;3.10;;;;;;;17.82;59.57;98342.68;1812840;78;21210;-58
2022/10/29 12:00:31;;;;;;;5.47;2.70;;;;;;;17.63;59.81;98348.53;1810084;78;20873;-59
2022/10/29 12:03:29;;;;;;;5.58;2.80;;;;;;;17.45;60.50;98343.72;1813737;77;20877;-62
2022/10/29 12:06:20;;;;;;;7.95;2.70;;;;;;;17.31;61.14;98341.79;1794314;78;21460;-59